createdAt,value
2023-01-19T00:03:31.831Z,10.97
2023-01-19T00:08:35.452Z,10.20
2023-01-19T00:13:40.074Z,10.00
2023-01-19T00:18:42.920Z,9.00
2023-01-19T00:23:47.659Z,10.20
2023-01-19T00:28:53.082Z,10.00
2023-01-19T00:33:56.048Z,9.90
2023-01-19T00:38:58.963Z,8.47
2023-01-19T00:44:03.205Z,7.97
2023-01-19T00:49:06.577Z,9.10
2023-01-19T00:54:10.443Z,8.83
2023-01-19T00:59:15.023Z,7.93
2023-01-19T01:04:17.958Z,7.23
2023-01-19T01:09:20.875Z,6.30
2023-01-19T01:14:25.316Z,7.07
2023-01-19T01:19:28.454Z,7.30
2023-01-19T01:24:32.017Z,6.63
2023-01-19T01:29:36.441Z,6.73
2023-01-19T01:34:39.602Z,7.20
2023-01-19T01:39:42.494Z,6.50
2023-01-19T01:44:52.648Z,7.50
2023-01-19T01:50:03.738Z,6.93
2023-01-19T01:55:09.187Z,6.97
2023-01-19T02:00:16.269Z,7.17
2023-01-19T02:05:24.148Z,6.97
2023-01-19T02:10:44.309Z,6.80
2023-01-19T02:15:49.664Z,5.53
2023-01-19T02:21:00.116Z,7.10
2023-01-19T02:26:05.856Z,6.40
2023-01-19T02:31:08.777Z,6.63
2023-01-19T02:36:15.602Z,7.50
2023-01-19T02:41:22.949Z,5.80
2023-01-19T02:46:26.648Z,7.20
2023-01-19T02:51:29.953Z,6.90
2023-01-19T02:56:45.660Z,6.70
2023-01-19T03:02:04.577Z,5.60
2023-01-19T03:07:12.696Z,5.57
2023-01-19T03:12:26.269Z,5.20
2023-01-19T03:17:32.108Z,5.47
2023-01-19T03:22:36.031Z,5.53
2023-01-19T03:27:42.136Z,5.10
2023-01-19T03:32:49.640Z,5.57
2023-01-19T03:37:55.636Z,4.47
2023-01-19T03:43:01.656Z,4.27
2023-01-19T03:48:05.968Z,4.67
2023-01-19T03:53:11.856Z,4.83
2023-01-19T03:58:16.121Z,3.50
2023-01-19T04:03:19.784Z,4.10
2023-01-19T04:08:22.662Z,3.70
2023-01-19T04:13:29.972Z,3.67
2023-01-19T04:18:34.927Z,3.63
2023-01-19T04:23:37.954Z,3.20
2023-01-19T04:28:42.707Z,3.60
2023-01-19T04:33:45.643Z,3.07
2023-01-19T04:38:48.892Z,3.40
2023-01-19T04:43:53.171Z,3.13
2023-01-19T04:48:56.030Z,3.10
2023-01-19T04:53:58.983Z,3.00
2023-01-19T04:59:03.350Z,3.43
2023-01-19T05:04:07.780Z,3.20
2023-01-19T05:09:14.177Z,3.10
2023-01-19T05:14:18.910Z,2.80
2023-01-19T05:19:22.135Z,2.80
2023-01-19T05:24:25.137Z,3.23
2023-01-19T05:29:29.569Z,2.93
2023-01-19T05:34:32.504Z,2.80
2023-01-19T05:39:35.543Z,2.80
2023-01-19T05:44:39.773Z,3.10
2023-01-19T05:49:42.719Z,3.00
2023-01-19T05:54:45.610Z,3.17
2023-01-19T05:59:49.889Z,2.67
2023-01-19T06:04:52.888Z,2.57
2023-01-19T06:09:55.987Z,3.07
2023-01-19T06:15:00.463Z,3.30
2023-01-19T06:20:03.428Z,3.17
2023-01-19T06:25:06.990Z,3.03
2023-01-19T06:30:12.924Z,3.40
2023-01-19T06:35:16.331Z,3.47
2023-01-19T06:40:19.479Z,3.47
2023-01-19T06:45:23.767Z,3.73
2023-01-19T06:50:26.714Z,3.50
2023-01-19T06:55:29.672Z,3.97
2023-01-19T07:00:34.115Z,2.90
2023-01-19T07:05:37.442Z,3.33
2023-01-19T07:11:26.362Z,3.00
2023-01-19T07:16:08.332Z,3.60
2023-01-19T07:21:11.324Z,3.37
2023-01-19T07:26:15.313Z,4.00
2023-01-19T07:31:21.044Z,3.53
2023-01-19T07:36:24.035Z,3.10
2023-01-19T07:41:29.255Z,3.30
2023-01-19T07:46:33.627Z,3.27
2023-01-19T07:51:36.797Z,6.20
2023-01-19T07:56:39.726Z,3.10
2023-01-19T08:01:44.591Z,3.70
2023-01-19T08:06:47.928Z,2.73
2023-01-19T08:11:50.852Z,3.30
2023-01-19T08:16:55.078Z,2.60
2023-01-19T08:21:59.043Z,2.87
2023-01-19T08:27:04.700Z,3.60
2023-01-19T08:32:09.243Z,3.20
2023-01-19T08:37:12.581Z,3.00
2023-01-19T08:42:15.495Z,3.30
2023-01-19T08:47:19.955Z,3.40
2023-01-19T08:52:24.703Z,3.40
2023-01-19T08:57:28.414Z,3.37
2023-01-19T09:02:32.720Z,4.00
2023-01-19T09:07:35.843Z,5.10
2023-01-19T09:12:38.999Z,3.83
2023-01-19T09:17:43.334Z,3.30
2023-01-19T09:22:47.602Z,3.70
2023-01-19T09:27:51.251Z,2.90
2023-01-19T09:32:55.790Z,2.83
2023-01-19T09:37:59.455Z,3.50
2023-01-19T09:43:15.966Z,2.60
2023-01-19T09:48:31.649Z,3.20
2023-01-19T09:54:05.001Z,3.40
2023-01-19T09:59:21.264Z,2.63
2023-01-19T10:04:32.626Z,2.83
2023-01-19T10:09:46.645Z,3.30
2023-01-19T10:14:56.626Z,2.77
2023-01-19T10:20:03.368Z,2.90
2023-01-19T10:25:16.920Z,3.30
2023-01-19T10:30:24.121Z,2.83
2023-01-19T10:35:28.662Z,3.33
2023-01-19T10:40:35.715Z,3.70
2023-01-19T10:45:38.653Z,3.60
2023-01-19T10:50:43.318Z,3.47
2023-01-19T10:55:46.321Z,3.40
2023-01-19T11:00:49.361Z,3.40
2023-01-19T11:05:53.819Z,3.40
2023-01-19T11:11:02.390Z,2.70
2023-01-19T11:16:07.986Z,2.97
2023-01-19T11:21:15.202Z,3.00
2023-01-19T11:26:28.030Z,2.73
2023-01-19T11:31:35.478Z,2.90
2023-01-19T11:36:39.860Z,2.63
2023-01-19T11:41:43.886Z,2.83
2023-01-19T11:46:52.805Z,3.10
2023-01-19T11:52:04.222Z,2.80
2023-01-19T11:57:13.751Z,3.83
2023-01-19T12:02:27.704Z,3.33
2023-01-19T12:07:36.019Z,4.30
2023-01-19T12:12:40.881Z,3.23
2023-01-19T12:17:49.616Z,3.80
2023-01-19T12:23:01.855Z,3.83
2023-01-19T12:28:06.456Z,3.87
2023-01-19T12:33:34.472Z,3.03
2023-01-19T12:39:02.376Z,3.33
2023-01-19T12:44:38.297Z,4.17
2023-01-19T12:49:43.778Z,3.83
2023-01-19T12:54:57.760Z,4.10
2023-01-19T13:00:02.323Z,3.80
2023-01-19T13:05:18.357Z,3.87
2023-01-19T13:11:10.491Z,4.00
2023-01-19T13:17:07.059Z,4.03
2023-01-19T13:22:49.465Z,4.13
2023-01-19T13:27:53.881Z,3.77
2023-01-19T13:33:01.683Z,3.70
2023-01-19T13:38:05.806Z,3.70
2023-01-19T13:43:17.120Z,3.30
2023-01-19T13:48:23.230Z,4.03
2023-01-19T13:53:26.185Z,3.93
2023-01-19T13:58:32.000Z,4.17
2023-01-19T14:03:34.932Z,3.83
2023-01-19T14:08:37.862Z,3.90
2023-01-19T14:13:45.254Z,3.60
2023-01-19T14:19:00.208Z,4.43
2023-01-19T14:24:08.553Z,4.10
2023-01-19T14:29:23.239Z,4.37
2023-01-19T14:34:33.893Z,4.53
2023-01-19T14:39:36.875Z,4.67
2023-01-19T14:44:41.821Z,5.03
2023-01-19T14:49:48.634Z,4.67
2023-01-19T14:54:52.583Z,4.40
2023-01-19T14:59:56.836Z,5.03
2023-01-19T15:04:59.774Z,4.80
2023-01-19T15:10:03.649Z,5.70
2023-01-19T15:15:15.743Z,5.40
2023-01-19T15:20:20.466Z,5.80
2023-01-19T15:25:26.683Z,5.33
2023-01-19T15:30:33.490Z,7.93
2023-01-19T15:35:36.486Z,7.10
2023-01-19T15:40:39.754Z,7.10
2023-01-19T15:45:45.506Z,6.27
2023-01-19T15:50:48.382Z,6.80
2023-01-19T15:55:52.729Z,5.90
2023-01-19T16:00:59.052Z,6.70
2023-01-19T16:06:02.268Z,6.70
2023-01-19T16:11:06.715Z,6.43
2023-01-19T16:16:24.943Z,6.20
2023-01-19T16:21:28.353Z,6.80
2023-01-19T16:26:34.357Z,6.80
2023-01-19T16:31:39.423Z,7.47
2023-01-19T16:36:43.542Z,6.57
2023-01-19T16:41:46.911Z,6.43
2023-01-19T16:46:51.623Z,7.97
2023-01-19T16:51:55.381Z,9.70
2023-01-19T16:56:58.904Z,10.77
2023-01-19T17:02:03.579Z,7.37
2023-01-19T17:07:06.591Z,6.63
2023-01-19T17:12:09.545Z,6.93
2023-01-19T17:17:13.853Z,6.87
2023-01-19T17:22:16.737Z,7.53
2023-01-19T17:27:19.629Z,7.40
2023-01-19T17:32:23.933Z,6.60
2023-01-19T17:37:26.778Z,6.97
2023-01-19T17:42:29.709Z,7.30
2023-01-19T17:47:33.934Z,8.40
2023-01-19T17:52:36.799Z,9.50
2023-01-19T17:57:39.904Z,7.53
2023-01-19T18:02:44.178Z,6.00
2023-01-19T18:07:47.432Z,5.90
2023-01-19T18:12:50.372Z,6.43
2023-01-19T18:17:54.601Z,6.27
2023-01-19T18:22:57.720Z,6.20
2023-01-19T18:28:00.601Z,6.53
2023-01-19T18:33:06.256Z,6.43
2023-01-19T18:38:09.215Z,5.80
2023-01-19T18:43:13.256Z,6.37
2023-01-19T18:48:18.158Z,5.53
2023-01-19T18:53:21.128Z,6.57
2023-01-19T18:58:24.712Z,6.00
2023-01-19T19:03:29.705Z,5.43
2023-01-19T19:08:34.006Z,5.07
2023-01-19T19:13:37.644Z,6.33
2023-01-19T19:18:41.908Z,6.10
2023-01-19T19:23:44.958Z,6.30
2023-01-19T19:28:48.008Z,5.90
2023-01-19T19:33:52.585Z,5.40
2023-01-19T19:38:55.705Z,5.07
2023-01-19T19:43:59.140Z,5.80
2023-01-19T19:49:03.578Z,5.50
2023-01-19T19:54:06.523Z,6.00
2023-01-19T19:59:10.164Z,6.17
2023-01-19T20:04:15.155Z,6.00
2023-01-19T20:09:18.505Z,6.50
2023-01-19T20:14:22.465Z,6.40
2023-01-19T20:19:26.699Z,6.80
2023-01-19T20:24:29.595Z,6.63
2023-01-19T20:29:32.547Z,6.03
2023-01-19T20:34:36.847Z,7.90
2023-01-19T20:39:39.909Z,7.70
2023-01-19T20:44:43.374Z,6.70
2023-01-19T20:49:47.655Z,6.57
2023-01-19T20:54:52.133Z,6.57
2023-01-19T20:59:55.137Z,6.20
2023-01-19T21:04:59.436Z,9.83
2023-01-19T21:10:02.364Z,7.40
2023-01-19T21:15:05.967Z,6.17
2023-01-19T21:20:12.096Z,6.40
2023-01-19T21:25:15.469Z,6.47
2023-01-19T21:30:19.198Z,7.80
2023-01-19T21:35:23.445Z,8.90
2023-01-19T21:40:26.456Z,11.00
2023-01-19T21:45:29.416Z,10.23
2023-01-19T21:50:34.055Z,8.30
2023-01-19T21:55:36.970Z,11.73
2023-01-19T22:00:39.914Z,7.20
2023-01-19T22:05:44.178Z,6.67
2023-01-19T22:10:47.028Z,7.23
2023-01-19T22:15:49.884Z,6.53
2023-01-19T22:20:54.269Z,7.20
2023-01-19T22:26:00.150Z,8.70
2023-01-19T22:31:08.732Z,6.63
2023-01-19T22:36:16.053Z,10.13
2023-01-19T22:41:20.833Z,8.47
2023-01-19T22:46:26.395Z,7.83
2023-01-19T22:51:32.738Z,8.40
2023-01-19T22:56:37.275Z,8.53
2023-01-19T23:01:42.188Z,8.40
2023-01-19T23:06:50.406Z,12.90
2023-01-19T23:11:53.369Z,14.60
2023-01-19T23:16:56.357Z,9.37
2023-01-19T23:22:00.605Z,9.07
2023-01-19T23:27:03.503Z,10.10
2023-01-19T23:32:06.434Z,8.60
2023-01-19T23:37:10.778Z,9.30
2023-01-19T23:42:13.657Z,9.10
2023-01-19T23:47:16.599Z,8.87
2023-01-19T23:52:20.856Z,8.53
2023-01-19T23:57:24.032Z,9.10
